Time;durP1;ratioP1;P1;durP2;ratioP2;P2;SDS_P1;SDS_P2;PMS_P1;PMS_P2;Temp;Humidity;BMP_temperature;BMP_pressure;BME280_temperature;BME280_humidity;BME280_pressure;Samples;Min_cycle;Max_cycle;Signal;HPM_P1;HPM_P2
2023/06/21 00:00:00;;;;;;;17.23;15.52;;;;;;;;;;5070125;28;20055;-77
2023/06/21 00:02:25;;;;;;;16.65;13.77;;;;;;;;;;5081091;28;20035;-78
2023/06/21 00:04:55;;;;;;;20.05;16.48;;;;;;;;;;5081087;28;20035;-78
2023/06/21 00:07:23;;;;;;;18.73;16.85;;;;;;;;;;5077602;28;20475;-78
2023/06/21 00:09:49;;;;;;;17.10;14.80;;;;;;;;;;5070174;28;20115;-79
2023/06/21 00:12:14;;;;;;;16.98;15.10;;;;;;;;;;5079466;28;20132;-78
2023/06/21 00:14:39;;;;;;;15.93;14.30;;;;;;;;;;5070570;28;20024;-78
2023/06/21 00:17:05;;;;;;;16.05;14.55;;;;;;;;;;5079600;28;20479;-78
2023/06/21 00:19:30;;;;;;;17.30;15.60;;;;;;;;;;5080366;28;20039;-78
2023/06/21 00:21:57;;;;;;;17.92;16.13;;;;;;;;;;5079214;28;20036;-79
2023/06/21 00:24:23;;;;;;;16.15;14.65;;;;;;;;;;5072486;28;20035;-81
2023/06/21 00:26:48;;;;;;;15.50;14.02;;;;;;;;;;5075470;28;20016;-80
2023/06/21 00:29:13;;;;;;;15.75;14.35;;;;;;;;;;5073478;28;20028;-79
2023/06/21 00:31:39;;;;;;;15.60;14.20;;;;;;;;;;5077650;28;20024;-79
2023/06/21 00:34:04;;;;;;;16.13;14.63;;;;;;;;;;5080379;28;20028;-77
2023/06/21 00:36:29;;;;;;;15.88;14.38;;;;;;;;;;5075405;28;20142;-79
2023/06/21 00:38:55;;;;;;;16.60;14.90;;;;;;;;;;5066316;28;20770;-79
2023/06/21 00:41:20;;;;;;;16.05;14.52;;;;;;;;;;5073239;28;20431;-78
2023/06/21 00:43:45;;;;;;;18.83;16.70;;;;;;;;;;5080361;28;20789;-77
2023/06/21 00:46:10;;;;;;;23.40;20.88;;;;;;;;;;5079276;28;20039;-77
2023/06/21 00:48:36;;;;;;;21.17;18.60;;;;;;;;;;5079648;28;20035;-79
2023/06/21 00:51:01;;;;;;;28.17;18.98;;;;;;;;;;5076280;28;20028;-81
2023/06/21 00:53:28;;;;;;;24.70;17.92;;;;;;;;;;5076086;28;20032;-81
2023/06/21 00:55:54;;;;;;;20.73;16.92;;;;;;;;;;5071164;28;20112;-77
2023/06/21 00:58:20;;;;;;;20.27;15.63;;;;;;;;;;5070506;28;20502;-78
2023/06/21 01:00:46;;;;;;;17.50;15.32;;;;;;;;;;5077211;28;20053;-80
2023/06/21 01:03:11;;;;;;;16.77;15.18;;;;;;;;;;5081380;28;20085;-82
2023/06/21 01:05:38;;;;;;;17.08;15.52;;;;;;;;;;5082094;28;20063;-78
2023/06/21 01:08:21;;;;;;;16.95;15.15;;;;;;;;;;5080423;28;20032;-77
2023/06/21 01:10:49;;;;;;;17.45;15.85;;;;;;;;;;5074826;28;20082;-77
2023/06/21 01:13:19;;;;;;;19.00;16.98;;;;;;;;;;5079344;28;20119;-78
2023/06/21 01:15:48;;;;;;;16.63;14.95;;;;;;;;;;5083664;28;20038;-77
2023/06/21 01:18:14;;;;;;;16.88;15.48;;;;;;;;;;5080925;28;20409;-78
2023/06/21 01:20:40;;;;;;;17.00;15.25;;;;;;;;;;5081181;28;20028;-77
2023/06/21 01:23:22;;;;;;;18.75;16.75;;;;;;;;;;5079168;28;20016;-78
2023/06/21 01:26:03;;;;;;;19.33;16.55;;;;;;;;;;5071800;28;20085;-77
2023/06/21 01:28:28;;;;;;;17.70;15.90;;;;;;;;;;5078475;28;20039;-78
2023/06/21 01:30:57;;;;;;;19.70;16.52;;;;;;;;;;5076409;28;20024;-78
2023/06/21 01:33:23;;;;;;;24.25;16.98;;;;;;;;;;5082032;28;20047;-77
2023/06/21 01:35:49;;;;;;;21.00;16.52;;;;;;;;;;5081013;28;20028;-77
2023/06/21 01:38:15;;;;;;;18.33;16.42;;;;;;;;;;5080607;28;20051;-78
2023/06/21 01:40:40;;;;;;;17.88;15.98;;;;;;;;;;5074512;28;20166;-76
2023/06/21 01:43:06;;;;;;;17.95;16.00;;;;;;;;;;5084013;28;20336;-78
2023/06/21 01:45:31;;;;;;;21.08;16.88;;;;;;;;;;5081477;28;20041;-81
2023/06/21 01:47:57;;;;;;;23.33;16.40;;;;;;;;;;5082182;28;20449;-77
2023/06/21 01:50:22;;;;;;;18.65;16.10;;;;;;;;;;5078556;28;20472;-79
2023/06/21 01:52:48;;;;;;;17.63;15.82;;;;;;;;;;5080181;28;20032;-77
2023/06/21 01:55:14;;;;;;;17.20;15.63;;;;;;;;;;5072696;28;20119;-79
2023/06/21 01:57:39;;;;;;;19.92;17.00;;;;;;;;;;5073084;28;20048;-75
2023/06/21 02:00:17;;;;;;;20.42;17.67;;;;;;;;;;5070815;28;20031;-77
2023/06/21 02:02:59;;;;;;;19.92;17.50;;;;;;;;;;5077084;28;20050;-78
2023/06/21 02:05:25;;;;;;;18.45;16.60;;;;;;;;;;5081236;28;20481;-77
2023/06/21 02:07:51;;;;;;;18.70;16.88;;;;;;;;;;5082347;28;20044;-78
2023/06/21 02:10:19;;;;;;;18.33;16.55;;;;;;;;;;5071885;28;20145;-83
2023/06/21 02:12:48;;;;;;;18.35;16.75;;;;;;;;;;5081329;28;20347;-78
2023/06/21 02:15:14;;;;;;;19.40;17.30;;;;;;;;;;5081892;28;20031;-79
2023/06/21 02:17:39;;;;;;;17.00;15.45;;;;;;;;;;5080144;28;20355;-77
2023/06/21 02:20:09;;;;;;;19.95;16.55;;;;;;;;;;5080588;28;20012;-76
2023/06/21 02:22:35;;;;;;;19.25;17.25;;;;;;;;;;5082006;28;20031;-77
2023/06/21 02:25:00;;;;;;;18.38;16.58;;;;;;;;;;5071632;28;20391;-77
2023/06/21 02:27:25;;;;;;;22.63;19.17;;;;;;;;;;5082509;28;20028;-77
2023/06/21 02:29:51;;;;;;;18.88;16.95;;;;;;;;;;5080793;28;20031;-77
2023/06/21 02:32:16;;;;;;;18.88;17.17;;;;;;;;;;5079516;28;20025;-78
2023/06/21 02:34:42;;;;;;;19.27;17.38;;;;;;;;;;5078265;28;20028;-77
2023/06/21 02:37:11;;;;;;;19.80;17.90;;;;;;;;;;5081974;28;20047;-75
2023/06/21 02:39:37;;;;;;;19.25;16.88;;;;;;;;;;5074010;28;20081;-77
2023/06/21 02:42:03;;;;;;;19.52;17.52;;;;;;;;;;5069294;28;20036;-80
2023/06/21 02:44:29;;;;;;;19.17;17.15;;;;;;;;;;5077673;28;20090;-76
2023/06/21 02:46:54;;;;;;;17.63;15.88;;;;;;;;;;5083505;28;20031;-78
2023/06/21 02:49:19;;;;;;;18.75;16.95;;;;;;;;;;5081128;28;20027;-76
2023/06/21 02:51:48;;;;;;;18.27;16.52;;;;;;;;;;5080894;28;20036;-78
2023/06/21 02:54:15;;;;;;;21.17;16.75;;;;;;;;;;5076274;28;20022;-79
2023/06/21 02:56:42;;;;;;;19.15;17.10;;;;;;;;;;5077823;28;20032;-77
2023/06/21 02:59:08;;;;;;;20.38;18.20;;;;;;;;;;5073017;28;20044;-81
2023/06/21 03:01:33;;;;;;;19.52;17.23;;;;;;;;;;5070337;28;20027;-79
2023/06/21 03:03:59;;;;;;;18.58;16.88;;;;;;;;;;5078087;28;20027;-78
2023/06/21 03:06:29;;;;;;;18.67;16.95;;;;;;;;;;5079455;28;20020;-77
2023/06/21 03:08:58;;;;;;;17.83;16.33;;;;;;;;;;5069224;28;20034;-79
2023/06/21 03:11:23;;;;;;;17.95;16.42;;;;;;;;;;5068370;28;20036;-81
2023/06/21 03:13:48;;;;;;;18.67;16.98;;;;;;;;;;5072440;28;20039;-80
2023/06/21 03:16:15;;;;;;;19.05;17.15;;;;;;;;;;5078253;28;20066;-80
2023/06/21 03:18:41;;;;;;;19.05;17.35;;;;;;;;;;5080443;28;20032;-76
2023/06/21 03:21:12;;;;;;;18.17;16.45;;;;;;;;;;5079040;28;20035;-76
2023/06/21 03:23:37;;;;;;;18.38;16.50;;;;;;;;;;5072634;28;20059;-78
2023/06/21 03:26:02;;;;;;;19.02;16.38;;;;;;;;;;5072912;28;20444;-80
2023/06/21 03:28:28;;;;;;;20.00;17.33;;;;;;;;;;5078691;28;20020;-78
2023/06/21 03:30:53;;;;;;;20.52;16.58;;;;;;;;;;5070835;28;20039;-78
2023/06/21 03:33:19;;;;;;;17.23;15.43;;;;;;;;;;5076353;28;20058;-78
2023/06/21 03:35:44;;;;;;;18.90;15.90;;;;;;;;;;5073185;28;20530;-84
2023/06/21 03:38:09;;;;;;;19.60;17.80;;;;;;;;;;5072136;28;20089;-79
2023/06/21 03:40:35;;;;;;;20.55;18.13;;;;;;;;;;5067095;28;20043;-78
2023/06/21 03:43:00;;;;;;;18.33;16.52;;;;;;;;;;5078479;28;20028;-77
2023/06/21 03:45:26;;;;;;;18.00;16.27;;;;;;;;;;5069464;28;20028;-78
2023/06/21 03:47:51;;;;;;;18.25;15.88;;;;;;;;;;5081901;28;20362;-77
2023/06/21 03:50:17;;;;;;;17.88;16.38;;;;;;;;;;5080932;28;20389;-76
2023/06/21 03:52:43;;;;;;;18.10;16.40;;;;;;;;;;5080761;28;20059;-80
2023/06/21 03:55:09;;;;;;;19.35;17.35;;;;;;;;;;5071106;28;20040;-79
2023/06/21 03:57:34;;;;;;;20.42;16.55;;;;;;;;;;5076377;28;20097;-79
2023/06/21 03:59:59;;;;;;;18.85;16.55;;;;;;;;;;5060815;28;20339;-79
2023/06/21 04:02:25;;;;;;;19.60;17.73;;;;;;;;;;5058986;28;20024;-78
2023/06/21 04:04:50;;;;;;;20.42;18.20;;;;;;;;;;5062804;28;20427;-77
2023/06/21 04:07:21;;;;;;;20.05;17.92;;;;;;;;;;5063073;28;20028;-77
2023/06/21 04:09:47;;;;;;;22.13;19.23;;;;;;;;;;5059838;28;20106;-77
2023/06/21 04:12:12;;;;;;;21.23;17.35;;;;;;;;;;5065635;28;20020;-80
2023/06/21 04:14:37;;;;;;;20.95;18.70;;;;;;;;;;5059343;28;20063;-76
2023/06/21 04:17:03;;;;;;;20.65;18.30;;;;;;;;;;5063468;28;20474;-78
2023/06/21 04:19:28;;;;;;;20.85;18.48;;;;;;;;;;5073558;28;20016;-77
2023/06/21 04:21:54;;;;;;;23.27;17.73;;;;;;;;;;5079204;28;20420;-78
2023/06/21 04:24:19;;;;;;;20.45;18.45;;;;;;;;;;5073247;28;20062;-81
2023/06/21 04:26:44;;;;;;;20.48;18.52;;;;;;;;;;5075115;28;20020;-79
2023/06/21 04:29:10;;;;;;;22.08;19.80;;;;;;;;;;5069107;28;20409;-77
2023/06/21 04:31:40;;;;;;;23.92;21.17;;;;;;;;;;5075295;28;20409;-77
2023/06/21 04:34:05;;;;;;;24.02;20.75;;;;;;;;;;5082024;28;20100;-78
2023/06/21 04:36:30;;;;;;;19.15;17.45;;;;;;;;;;5083954;28;20031;-77
2023/06/21 04:38:56;;;;;;;17.95;16.25;;;;;;;;;;5079533;28;20020;-77
2023/06/21 04:41:21;;;;;;;18.90;17.05;;;;;;;;;;5074807;28;20105;-79
2023/06/21 04:43:47;;;;;;;19.00;17.02;;;;;;;;;;5082666;28;20027;-78
2023/06/21 04:46:12;;;;;;;16.52;14.90;;;;;;;;;;5084288;28;20012;-80
2023/06/21 04:48:38;;;;;;;18.88;16.98;;;;;;;;;;5085735;28;20099;-80
2023/06/21 04:51:04;;;;;;;25.58;17.77;;;;;;;;;;5082677;28;20036;-87
2023/06/21 04:53:29;;;;;;;18.83;16.20;;;;;;;;;;5084297;28;20027;-82
2023/06/21 04:55:58;;;;;;;17.20;15.65;;;;;;;;;;5073788;28;20393;-79
2023/06/21 04:58:24;;;;;;;17.03;15.43;;;;;;;;;;5069870;28;20105;-80
2023/06/21 05:00:49;;;;;;;19.90;18.02;;;;;;;;;;5079478;28;20447;-80
2023/06/21 05:03:14;;;;;;;17.88;16.17;;;;;;;;;;5082616;28;20020;-78
2023/06/21 05:05:40;;;;;;;18.92;15.93;;;;;;;;;;5084156;28;20122;-79
2023/06/21 05:08:06;;;;;;;17.60;16.00;;;;;;;;;;5084623;28;20027;-77
2023/06/21 05:10:31;;;;;;;18.58;16.88;;;;;;;;;;5082346;28;20028;-79
2023/06/21 05:12:56;;;;;;;18.65;17.02;;;;;;;;;;5082644;28;20024;-77
2023/06/21 05:15:22;;;;;;;18.40;16.70;;;;;;;;;;5083222;28;21065;-80
2023/06/21 05:17:47;;;;;;;17.83;16.35;;;;;;;;;;5083761;28;20032;-82
2023/06/21 05:20:13;;;;;;;18.58;16.75;;;;;;;;;;5083753;28;20035;-79
2023/06/21 05:22:38;;;;;;;20.20;18.13;;;;;;;;;;5082024;28;20024;-80
2023/06/21 05:25:04;;;;;;;18.50;16.90;;;;;;;;;;5082275;28;20532;-77
2023/06/21 05:27:32;;;;;;;18.85;17.02;;;;;;;;;;5083546;28;20034;-77
2023/06/21 05:29:57;;;;;;;17.58;15.93;;;;;;;;;;5083374;28;20023;-76
2023/06/21 05:32:25;;;;;;;18.85;17.08;;;;;;;;;;5075117;28;20118;-78
2023/06/21 05:34:51;;;;;;;17.73;16.02;;;;;;;;;;5076533;28;20040;-76
2023/06/21 05:37:16;;;;;;;18.85;17.05;;;;;;;;;;5081106;28;20073;-76
2023/06/21 05:39:43;;;;;;;19.10;17.27;;;;;;;;;;5083087;28;20023;-81
2023/06/21 05:42:08;;;;;;;18.17;16.33;;;;;;;;;;5081751;28;20031;-76
2023/06/21 05:44:33;;;;;;;18.15;16.45;;;;;;;;;;5082440;28;20032;-75
2023/06/21 05:46:59;;;;;;;17.75;16.15;;;;;;;;;;5080315;28;20085;-77
2023/06/21 05:49:24;;;;;;;16.88;15.38;;;;;;;;;;5080211;28;20024;-78
2023/06/21 05:51:49;;;;;;;15.90;14.40;;;;;;;;;;5082926;28;20089;-79
2023/06/21 05:54:15;;;;;;;15.25;13.88;;;;;;;;;;5082244;28;20081;-80
2023/06/21 05:56:40;;;;;;;14.55;13.40;;;;;;;;;;5084449;28;20019;-78
2023/06/21 05:59:05;;;;;;;14.25;12.73;;;;;;;;;;5083686;28;20063;-79
2023/06/21 06:01:31;;;;;;;14.38;13.00;;;;;;;;;;5080707;28;20058;-77
2023/06/21 06:03:56;;;;;;;13.40;12.23;;;;;;;;;;5078800;28;20036;-83
2023/06/21 06:06:21;;;;;;;15.18;13.68;;;;;;;;;;5080644;28;20031;-80
2023/06/21 06:08:47;;;;;;;14.30;12.88;;;;;;;;;;5082108;28;20077;-78
2023/06/21 06:11:12;;;;;;;13.77;12.52;;;;;;;;;;5083579;28;20028;-81
2023/06/21 06:13:38;;;;;;;12.95;11.75;;;;;;;;;;5083981;28;20039;-78
2023/06/21 06:16:03;;;;;;;16.63;12.25;;;;;;;;;;5081547;28;20443;-77
2023/06/21 06:18:29;;;;;;;13.30;12.10;;;;;;;;;;5079900;28;20020;-76
2023/06/21 06:20:54;;;;;;;14.20;12.88;;;;;;;;;;5082095;28;20035;-76
2023/06/21 06:23:19;;;;;;;13.40;12.00;;;;;;;;;;5081399;28;20085;-76
2023/06/21 06:25:45;;;;;;;12.93;11.80;;;;;;;;;;5082521;28;20076;-76
2023/06/21 06:28:10;;;;;;;13.50;12.20;;;;;;;;;;5082724;28;20024;-79
2023/06/21 06:30:35;;;;;;;12.60;11.40;;;;;;;;;;5081322;28;20112;-78
2023/06/21 06:33:01;;;;;;;12.70;11.50;;;;;;;;;;5083376;28;20024;-82
2023/06/21 06:35:27;;;;;;;12.00;11.00;;;;;;;;;;5081611;28;20035;-79
2023/06/21 06:37:52;;;;;;;12.57;11.38;;;;;;;;;;5081850;28;20023;-78
2023/06/21 06:40:17;;;;;;;13.15;11.73;;;;;;;;;;5080049;28;20028;-82
2023/06/21 06:42:43;;;;;;;12.52;11.38;;;;;;;;;;5079672;28;20028;-80
2023/06/21 06:45:08;;;;;;;11.30;10.25;;;;;;;;;;5082075;28;20031;-78
2023/06/21 06:47:33;;;;;;;12.05;11.05;;;;;;;;;;5082250;28;20028;-77
2023/06/21 06:50:01;;;;;;;11.13;10.13;;;;;;;;;;5082165;28;20418;-83
2023/06/21 06:52:27;;;;;;;11.52;10.43;;;;;;;;;;5081291;28;20027;-78
2023/06/21 06:54:52;;;;;;;12.57;10.30;;;;;;;;;;5081099;28;20383;-79
2023/06/21 06:57:17;;;;;;;13.70;10.70;;;;;;;;;;5081317;28;20024;-76
2023/06/21 06:59:43;;;;;;;10.55;9.75;;;;;;;;;;5081240;28;20035;-76
2023/06/21 07:02:08;;;;;;;11.48;10.48;;;;;;;;;;5078439;28;20046;-76
2023/06/21 07:04:33;;;;;;;11.10;9.98;;;;;;;;;;5078251;28;20033;-76
2023/06/21 07:07:01;;;;;;;11.00;9.93;;;;;;;;;;5080616;28;20036;-76
2023/06/21 07:09:26;;;;;;;11.05;9.93;;;;;;;;;;5079921;28;20467;-82
2023/06/21 07:11:51;;;;;;;11.20;10.10;;;;;;;;;;5081195;28;20025;-77
2023/06/21 07:14:17;;;;;;;10.82;10.02;;;;;;;;;;5081597;28;20024;-77
2023/06/21 07:16:43;;;;;;;10.85;9.85;;;;;;;;;;5079359;28;20102;-77
2023/06/21 07:19:08;;;;;;;10.45;9.55;;;;;;;;;;5081501;28;20027;-76
2023/06/21 07:21:34;;;;;;;11.00;10.10;;;;;;;;;;5081049;28;20032;-80
2023/06/21 07:23:59;;;;;;;11.15;10.15;;;;;;;;;;5081041;28;20081;-78
2023/06/21 07:26:25;;;;;;;10.90;9.98;;;;;;;;;;5078230;28;20058;-76
2023/06/21 07:28:50;;;;;;;10.57;9.75;;;;;;;;;;5077423;28;20162;-78
2023/06/21 07:31:16;;;;;;;11.23;10.07;;;;;;;;;;5082325;28;20427;-78
2023/06/21 07:33:42;;;;;;;10.50;9.60;;;;;;;;;;5080771;28;20039;-78
2023/06/21 07:36:07;;;;;;;11.35;10.13;;;;;;;;;;5081305;28;20028;-76
2023/06/21 07:38:32;;;;;;;10.75;9.82;;;;;;;;;;5079628;28;20027;-76
2023/06/21 07:40:58;;;;;;;10.68;9.57;;;;;;;;;;5079479;28;20020;-77
2023/06/21 07:43:23;;;;;;;10.77;9.13;;;;;;;;;;5079346;28;20024;-83
2023/06/21 07:45:48;;;;;;;10.85;9.18;;;;;;;;;;5080569;28;20066;-80
2023/06/21 07:48:14;;;;;;;10.48;9.52;;;;;;;;;;5080809;28;20024;-81
2023/06/21 07:50:39;;;;;;;10.15;9.27;;;;;;;;;;5080100;28;20125;-82
2023/06/21 07:53:04;;;;;;;11.70;9.93;;;;;;;;;;5080705;28;20035;-79
2023/06/21 07:55:30;;;;;;;10.95;10.05;;;;;;;;;;5080796;28;20039;-78
2023/06/21 07:57:55;;;;;;;10.18;9.38;;;;;;;;;;5079297;28;20141;-80
2023/06/21 08:00:20;;;;;;;10.55;9.45;;;;;;;;;;5079953;28;20020;-80
2023/06/21 08:02:49;;;;;;;10.63;9.73;;;;;;;;;;5080848;28;20066;-78
2023/06/21 08:05:14;;;;;;;10.88;9.80;;;;;;;;;;5079789;28;20039;-79
2023/06/21 08:07:40;;;;;;;10.93;9.90;;;;;;;;;;5081549;28;20040;-79
2023/06/21 08:10:05;;;;;;;11.70;10.70;;;;;;;;;;5080425;28;20451;-83
2023/06/21 08:12:31;;;;;;;11.55;10.65;;;;;;;;;;5079486;28;20024;-77
2023/06/21 08:14:56;;;;;;;11.10;10.10;;;;;;;;;;5081392;28;20020;-77
2023/06/21 08:17:21;;;;;;;11.57;10.57;;;;;;;;;;5078996;28;20035;-77
2023/06/21 08:19:47;;;;;;;10.48;9.60;;;;;;;;;;5078821;28;20027;-84
2023/06/21 08:22:12;;;;;;;12.85;10.20;;;;;;;;;;5080601;28;20047;-78
2023/06/21 08:24:37;;;;;;;11.80;10.63;;;;;;;;;;5080354;28;20024;-78
2023/06/21 08:27:03;;;;;;;11.95;10.85;;;;;;;;;;5078838;28;20097;-81
2023/06/21 08:29:28;;;;;;;12.80;11.65;;;;;;;;;;5080456;28;20453;-78
2023/06/21 08:31:53;;;;;;;12.50;11.43;;;;;;;;;;5079851;28;20047;-78
2023/06/21 08:34:19;;;;;;;13.23;12.05;;;;;;;;;;5075055;28;20348;-78
2023/06/21 08:36:44;;;;;;;12.02;11.02;;;;;;;;;;5079019;28;21161;-78
2023/06/21 08:39:09;;;;;;;12.60;11.40;;;;;;;;;;5079242;28;20415;-80
2023/06/21 08:41:35;;;;;;;12.43;11.23;;;;;;;;;;5076659;28;20432;-84
2023/06/21 08:44:01;;;;;;;12.15;11.07;;;;;;;;;;5079834;28;20648;-77
2023/06/21 08:46:27;;;;;;;12.75;11.52;;;;;;;;;;5079717;28;20020;-83
2023/06/21 08:48:56;;;;;;;12.10;11.02;;;;;;;;;;5077040;28;20037;-80
2023/06/21 08:51:22;;;;;;;11.35;10.45;;;;;;;;;;5067424;28;20039;-76
2023/06/21 08:53:53;;;;;;;12.30;11.27;;;;;;;;;;5066273;28;20031;-80
2023/06/21 08:56:21;;;;;;;11.70;10.60;;;;;;;;;;5066398;28;20080;-80
2023/06/21 08:58:51;;;;;;;12.43;11.02;;;;;;;;;;5066426;28;20055;-79
2023/06/21 09:01:19;;;;;;;11.43;10.48;;;;;;;;;;5064078;28;20999;-80
2023/06/21 09:03:50;;;;;;;12.57;10.73;;;;;;;;;;5067751;28;20020;-78
2023/06/21 09:06:18;;;;;;;11.57;10.32;;;;;;;;;;5062914;28;20036;-82
2023/06/21 09:08:45;;;;;;;16.58;11.10;;;;;;;;;;5072224;28;20081;-76
2023/06/21 09:11:11;;;;;;;12.98;11.02;;;;;;;;;;5066696;28;20133;-86
2023/06/21 09:13:38;;;;;;;10.95;10.05;;;;;;;;;;5065375;28;20050;-81
2023/06/21 09:16:04;;;;;;;10.52;9.63;;;;;;;;;;5067232;28;20032;-81
2023/06/21 09:18:35;;;;;;;11.48;10.48;;;;;;;;;;5068888;28;20034;-78
2023/06/21 09:21:01;;;;;;;10.90;9.98;;;;;;;;;;5070080;28;20400;-83
2023/06/21 09:23:27;;;;;;;10.73;9.80;;;;;;;;;;5069347;28;20023;-80
2023/06/21 09:25:52;;;;;;;9.60;8.80;;;;;;;;;;5070327;28;20028;-83
2023/06/21 09:28:17;;;;;;;10.43;9.45;;;;;;;;;;5070019;28;20045;-80
2023/06/21 09:30:44;;;;;;;10.48;9.57;;;;;;;;;;5069129;28;20077;-76
2023/06/21 09:33:09;;;;;;;10.43;9.57;;;;;;;;;;5065287;28;20085;-79
2023/06/21 09:35:36;;;;;;;10.85;9.75;;;;;;;;;;5070277;28;20123;-80
2023/06/21 09:38:18;;;;;;;10.38;9.35;;;;;;;;;;5069939;28;20043;-84
2023/06/21 09:40:44;;;;;;;9.32;8.43;;;;;;;;;;5077073;28;20039;-83
2023/06/21 09:43:10;;;;;;;10.23;9.23;;;;;;;;;;5083027;28;20024;-81
2023/06/21 09:45:35;;;;;;;10.15;9.18;;;;;;;;;;5082294;28;20028;-82
2023/06/21 09:48:01;;;;;;;9.82;9.02;;;;;;;;;;5083983;28;20120;-80
2023/06/21 09:50:26;;;;;;;10.43;9.35;;;;;;;;;;5079888;28;20107;-84
2023/06/21 09:52:51;;;;;;;10.95;8.65;;;;;;;;;;5072777;28;20339;-77
2023/06/21 09:55:17;;;;;;;9.85;9.05;;;;;;;;;;5075430;28;20033;-78
2023/06/21 09:57:43;;;;;;;9.82;8.77;;;;;;;;;;5069749;28;20475;-77
2023/06/21 10:00:08;;;;;;;9.82;8.93;;;;;;;;;;5069209;28;20016;-81
2023/06/21 10:02:40;;;;;;;12.30;9.25;;;;;;;;;;5070072;28;20031;-87
2023/06/21 10:05:15;;;;;;;8.98;8.23;;;;;;;;;;5073574;28;20035;-83
2023/06/21 10:07:44;;;;;;;10.13;9.30;;;;;;;;;;5067204;28;20077;-78
2023/06/21 10:10:10;;;;;;;9.65;8.93;;;;;;;;;;5068351;28;20165;-78
2023/06/21 10:12:35;;;;;;;9.88;9.10;;;;;;;;;;5070788;28;20134;-76
2023/06/21 10:15:01;;;;;;;9.57;8.77;;;;;;;;;;5072015;28;20350;-78
2023/06/21 10:17:26;;;;;;;9.65;8.90;;;;;;;;;;5071778;28;20020;-80
2023/06/21 10:19:52;;;;;;;11.45;9.00;;;;;;;;;;5071466;28;20440;-83
2023/06/21 10:22:20;;;;;;;10.93;9.10;;;;;;;;;;5070758;28;20346;-87
2023/06/21 10:24:52;;;;;;;16.00;9.93;;;;;;;;;;5071393;28;20312;-77
2023/06/21 10:27:19;;;;;;;9.95;8.98;;;;;;;;;;5069263;28;20023;-81
2023/06/21 10:29:45;;;;;;;11.70;9.20;;;;;;;;;;5072393;28;20741;-81
2023/06/21 10:32:10;;;;;;;9.57;8.88;;;;;;;;;;5067896;28;20032;-81
2023/06/21 10:34:38;;;;;;;15.57;9.18;;;;;;;;;;5068120;28;20458;-78
2023/06/21 10:37:08;;;;;;;10.60;9.70;;;;;;;;;;5074178;28;20031;-84
2023/06/21 10:39:34;;;;;;;11.00;10.00;;;;;;;;;;5069362;28;20028;-84
2023/06/21 10:42:01;;;;;;;10.70;9.57;;;;;;;;;;5067087;28;20043;-82
2023/06/21 10:44:28;;;;;;;10.32;9.43;;;;;;;;;;5067221;28;20046;-82
2023/06/21 10:46:54;;;;;;;8.93;8.23;;;;;;;;;;5070782;28;20032;-81
2023/06/21 10:49:19;;;;;;;9.90;9.05;;;;;;;;;;5073780;28;20052;-80
2023/06/21 10:51:45;;;;;;;9.27;8.48;;;;;;;;;;5069233;28;20126;-89
2023/06/21 10:54:11;;;;;;;9.07;8.38;;;;;;;;;;5074498;28;20774;-79
2023/06/21 10:56:37;;;;;;;9.32;8.52;;;;;;;;;;5071062;28;20027;-77
2023/06/21 10:59:03;;;;;;;8.93;8.23;;;;;;;;;;5073967;28;20063;-82
2023/06/21 11:01:28;;;;;;;9.27;8.48;;;;;;;;;;5068328;28;20028;-80
2023/06/21 11:03:53;;;;;;;8.70;8.00;;;;;;;;;;5071587;28;20093;-82
2023/06/21 11:06:23;;;;;;;10.05;9.25;;;;;;;;;;5070891;28;20089;-82
2023/06/21 11:08:48;;;;;;;9.55;8.75;;;;;;;;;;5068067;28;20097;-77
2023/06/21 11:11:30;;;;;;;9.02;8.18;;;;;;;;;;5067751;28;20035;-81
2023/06/21 11:13:56;;;;;;;9.43;8.73;;;;;;;;;;5065793;28;20127;-77
2023/06/21 11:16:24;;;;;;;9.25;8.45;;;;;;;;;;5067905;28;20095;-82
2023/06/21 11:18:49;;;;;;;9.02;8.32;;;;;;;;;;5067845;28;20186;-77
2023/06/21 11:21:33;;;;;;;8.90;8.20;;;;;;;;;;5069729;28;20118;-81
2023/06/21 11:24:00;;;;;;;9.57;8.77;;;;;;;;;;5069972;28;20063;-80
2023/06/21 11:26:26;;;;;;;9.05;8.15;;;;;;;;;;5067292;28;20024;-79
2023/06/21 11:28:51;;;;;;;9.50;8.68;;;;;;;;;;5067718;28;20071;-80
2023/06/21 11:31:22;;;;;;;9.80;8.85;;;;;;;;;;5068340;28;21203;-83
2023/06/21 11:33:52;;;;;;;9.40;8.57;;;;;;;;;;5067448;28;20031;-81
2023/06/21 11:36:25;;;;;;;9.43;8.63;;;;;;;;;;5062441;28;20978;-81
2023/06/21 11:39:11;;;;;;;9.05;8.35;;;;;;;;;;5068814;28;20023;-81
2023/06/21 11:41:43;;;;;;;9.20;8.50;;;;;;;;;;5060374;28;20051;-82
2023/06/21 11:44:09;;;;;;;10.18;9.20;;;;;;;;;;5068631;28;20071;-82
2023/06/21 11:46:34;;;;;;;12.23;9.25;;;;;;;;;;5067856;28;20443;-81
2023/06/21 11:49:00;;;;;;;9.88;8.98;;;;;;;;;;5067182;28;20073;-80
2023/06/21 11:51:27;;;;;;;9.32;8.52;;;;;;;;;;5065355;28;20435;-81
2023/06/21 11:53:53;;;;;;;9.32;8.43;;;;;;;;;;5068136;28;20043;-83
2023/06/21 11:56:19;;;;;;;8.88;8.13;;;;;;;;;;5059399;28;20024;-80
2023/06/21 11:58:51;;;;;;;10.15;9.25;;;;;;;;;;5067350;28;20055;-84
2023/06/21 12:01:16;;;;;;;8.98;8.25;;;;;;;;;;5068198;28;20394;-82
2023/06/21 12:03:41;;;;;;;8.80;8.10;;;;;;;;;;5068039;28;20086;-79
2023/06/21 12:06:07;;;;;;;10.13;9.02;;;;;;;;;;5065696;28;20412;-78
2023/06/21 12:08:36;;;;;;;9.82;8.93;;;;;;;;;;5067434;28;20024;-80
2023/06/21 12:11:02;;;;;;;9.18;8.48;;;;;;;;;;5065856;28;20410;-81
2023/06/21 12:13:28;;;;;;;9.57;8.68;;;;;;;;;;5067821;28;20077;-85
2023/06/21 12:15:54;;;;;;;9.02;8.30;;;;;;;;;;5072342;28;20032;-87
2023/06/21 12:18:20;;;;;;;8.68;8.07;;;;;;;;;;5066788;28;20355;-83
2023/06/21 12:20:46;;;;;;;8.98;8.05;;;;;;;;;;5066629;28;20032;-80
2023/06/21 12:23:11;;;;;;;9.27;8.57;;;;;;;;;;5068005;28;20024;-82
2023/06/21 12:25:43;;;;;;;8.77;8.07;;;;;;;;;;5066654;28;20340;-77
2023/06/21 12:28:09;;;;;;;9.13;8.32;;;;;;;;;;5066899;28;20078;-87
2023/06/21 12:30:45;;;;;;;8.55;7.88;;;;;;;;;;5066076;28;20389;-80
2023/06/21 12:33:10;;;;;;;8.88;8.23;;;;;;;;;;5067301;28;20028;-83
2023/06/21 12:35:37;;;;;;;11.02;8.35;;;;;;;;;;5065496;28;20410;-82
2023/06/21 12:38:08;;;;;;;13.93;8.80;;;;;;;;;;5067756;28;20459;-80
2023/06/21 12:40:33;;;;;;;8.35;7.65;;;;;;;;;;5067285;28;20069;-83
2023/06/21 12:42:59;;;;;;;9.35;7.90;;;;;;;;;;5068731;28;20460;-80
2023/06/21 12:45:24;;;;;;;8.82;8.02;;;;;;;;;;5067552;28;20439;-84
2023/06/21 12:47:50;;;;;;;8.40;7.70;;;;;;;;;;5060096;28;20081;-78
2023/06/21 12:50:20;;;;;;;8.38;7.78;;;;;;;;;;5067383;28;20038;-84
2023/06/21 12:52:45;;;;;;;8.80;8.10;;;;;;;;;;5066687;28;20027;-83
2023/06/21 12:55:15;;;;;;;8.82;8.02;;;;;;;;;;5071224;28;20032;-83
2023/06/21 12:57:40;;;;;;;8.80;8.00;;;;;;;;;;5073682;28;20047;-82
2023/06/21 13:00:07;;;;;;;8.52;7.85;;;;;;;;;;5082974;28;20150;-81
2023/06/21 13:02:33;;;;;;;8.35;7.65;;;;;;;;;;5082253;28;20024;-83
2023/06/21 13:04:58;;;;;;;9.27;8.48;;;;;;;;;;5083857;28;20093;-82
2023/06/21 13:07:24;;;;;;;8.70;8.10;;;;;;;;;;5082530;28;20518;-82
2023/06/21 13:09:49;;;;;;;9.60;8.65;;;;;;;;;;5082523;28;20027;-83
2023/06/21 13:12:15;;;;;;;8.88;8.18;;;;;;;;;;5084311;28;20116;-81
2023/06/21 13:14:40;;;;;;;8.52;7.82;;;;;;;;;;5082651;28;20366;-80
2023/06/21 13:17:05;;;;;;;9.43;8.63;;;;;;;;;;5069937;28;20020;-80
2023/06/21 13:19:31;;;;;;;9.93;9.13;;;;;;;;;;5070509;28;20024;-82
2023/06/21 13:21:57;;;;;;;9.00;8.20;;;;;;;;;;5066981;28;20027;-83
2023/06/21 13:24:22;;;;;;;9.45;8.65;;;;;;;;;;5069370;28;20286;-78
2023/06/21 13:26:47;;;;;;;9.25;8.35;;;;;;;;;;5067051;28;20028;-80
2023/06/21 13:29:13;;;;;;;8.75;7.75;;;;;;;;;;5067953;28;20097;-77
2023/06/21 13:31:38;;;;;;;8.85;8.15;;;;;;;;;;5069753;28;20041;-80
2023/06/21 13:34:04;;;;;;;8.57;7.78;;;;;;;;;;5067749;28;21463;-81
2023/06/21 13:36:29;;;;;;;8.75;7.95;;;;;;;;;;5069624;28;20120;-83
2023/06/21 13:38:54;;;;;;;8.75;8.05;;;;;;;;;;5069352;28;20096;-80
2023/06/21 13:41:20;;;;;;;8.63;7.93;;;;;;;;;;5077696;28;20020;-82
2023/06/21 13:43:45;;;;;;;8.75;8.05;;;;;;;;;;5073230;28;20035;-77
2023/06/21 13:46:10;;;;;;;10.05;8.63;;;;;;;;;;5079713;28;20032;-80
2023/06/21 13:48:36;;;;;;;9.65;8.85;;;;;;;;;;5071129;28;20040;-83
2023/06/21 13:51:01;;;;;;;9.63;8.82;;;;;;;;;;5072843;28;20038;-81
2023/06/21 13:53:27;;;;;;;10.60;9.65;;;;;;;;;;5066365;28;20024;-80
2023/06/21 13:55:53;;;;;;;10.60;9.40;;;;;;;;;;5066879;28;20455;-77
2023/06/21 13:58:20;;;;;;;11.45;10.35;;;;;;;;;;5076034;28;20059;-80
2023/06/21 14:00:45;;;;;;;10.52;9.45;;;;;;;;;;5067648;28;20451;-80
2023/06/21 14:03:10;;;;;;;10.55;9.65;;;;;;;;;;5070186;28;20120;-80
2023/06/21 14:05:36;;;;;;;10.55;9.70;;;;;;;;;;5067808;28;20047;-83
2023/06/21 14:08:02;;;;;;;11.27;10.40;;;;;;;;;;5079387;28;20036;-80
2023/06/21 14:10:28;;;;;;;10.45;9.63;;;;;;;;;;5068801;28;20020;-76
2023/06/21 14:12:54;;;;;;;10.65;9.75;;;;;;;;;;5069102;28;20067;-78
2023/06/21 14:15:19;;;;;;;10.52;9.63;;;;;;;;;;5066300;28;20106;-78
2023/06/21 14:17:44;;;;;;;10.50;9.70;;;;;;;;;;5068700;28;20124;-78
2023/06/21 14:20:10;;;;;;;12.32;9.80;;;;;;;;;;5068422;28;20107;-77